KMMU/MMU METAR and TAF weather

Enter ICAO airport designator
Station Type Date Time Source
KMMU METAR 2019/06/27 04:15 UTC NOAA

KMMU 270415Z AUTO 00000KT 10SM CLR 20/20 A3005 RMK AO2


Station Type Date Time Source
KMMU Decoded METAR 2019/06/27 04:15 UTC NOAA

Morristown Municipal, NJ, United States (KMMU) 40-48N 074-25W
Jun 27, 2019 - 12:15 AM EDT / 2019.06.27 0415 UTC
Wind: Calm:0
Visibility: 10 mile(s):0
Sky conditions: clear
Temperature: 68 F (20 C)
Dew Point: 68 F (20 C)
Relative Humidity: 100%
Pressure (altimeter): 30.05 in. Hg (1017 hPa)
ob: KMMU 270415Z AUTO 00000KT 10SM CLR 20/20 A3005 RMK AO2
cycle: 4

Station Type Date Time Source
KMMU TAF UTC NOAA

Error!

Example: see airport list